Time;durP1;ratioP1;P1;durP2;ratioP2;P2;SDS_P1;SDS_P2;PMS_P1;PMS_P2;Temp;Humidity;BMP_temperature;BMP_pressure;BME280_temperature;BME280_humidity;BME280_pressure;Samples;Min_cycle;Max_cycle;Signal;HPM_P1;HPM_P2
2022/02/27 00:01:51;;;;;;;14.80;6.10;;;;;3.50;98519.60;;;;110623;1250;41267;-67
2022/02/27 00:04:22;;;;;;;13.10;5.60;;;;;3.50;98520.40;;;;110893;1250;41644;-68
2022/02/27 00:06:51;;;;;;;14.00;7.30;;;;;3.52;98515.80;;;;110742;1251;41156;-67
2022/02/27 00:09:21;;;;;;;14.40;6.50;;;;;3.52;98510.20;;;;110598;1251;41263;-67
2022/02/27 00:11:51;;;;;;;12.20;5.50;;;;;3.50;98510.60;;;;110455;1251;41160;-68
2022/02/27 00:14:20;;;;;;;13.30;5.20;;;;;3.54;98508.00;;;;110792;1251;41142;-66
2022/02/27 00:16:50;;;;;;;14.50;4.60;;;;;3.52;98508.80;;;;110799;1250;41352;-69
2022/02/27 00:19:21;;;;;;;11.10;4.90;;;;;3.50;98507.40;;;;110655;1251;41152;-67
2022/02/27 00:21:50;;;;;;;;;;;;;3.50;98509.60;;;;110744;1250;41254;-67
2022/02/27 00:24:20;;;;;;;11.60;4.90;;;;;3.50;98511.20;;;;110804;1250;41161;-67
2022/02/27 00:26:49;;;;;;;10.70;4.90;;;;;3.42;98515.00;;;;110952;1250;41151;-66
2022/02/27 00:29:18;;;;;;;12.80;5.40;;;;;3.40;98518.40;;;;110741;1251;41257;-66
2022/02/27 00:31:49;;;;;;;13.80;6.00;;;;;3.40;98512.60;;;;110714;1251;43040;-67
2022/02/27 00:34:23;;;;;;;14.30;5.40;;;;;3.40;98511.80;;;;110786;1250;41154;-66
2022/02/27 00:36:52;;;;;;;10.80;5.30;;;;;3.40;98509.60;;;;110901;1250;41154;-67
2022/02/27 00:39:22;;;;;;;11.70;5.00;;;;;3.30;98507.60;;;;110718;1250;41885;-66
2022/02/27 00:41:52;;;;;;;11.30;4.50;;;;;3.30;98511.40;;;;110742;1250;41258;-67
2022/02/27 00:44:21;;;;;;;12.30;4.90;;;;;3.30;98508.40;;;;110945;1250;41141;-66
2022/02/27 00:46:52;;;;;;;11.90;4.70;;;;;3.30;98505.80;;;;110961;1250;41899;-67
2022/02/27 00:49:22;;;;;;;10.60;4.50;;;;;3.30;98500.40;;;;110701;1250;41747;-68
2022/02/27 00:51:52;;;;;;;11.10;4.20;;;;;3.22;98498.20;;;;110628;1251;41207;-69
2022/02/27 00:54:24;;;;;;;8.10;3.80;;;;;3.20;98495.40;;;;110637;1251;42277;-64
2022/02/27 00:56:54;;;;;;;11.10;4.40;;;;;3.20;98491.40;;;;110711;1250;41177;-66
2022/02/27 00:59:25;;;;;;;10.40;4.50;;;;;3.20;98493.40;;;;110555;1253;41277;-67
2022/02/27 01:01:55;;;;;;;12.20;3.80;;;;;3.20;98486.40;;;;110673;1250;41162;-66
2022/02/27 01:04:28;;;;;;;8.80;3.80;;;;;3.10;98489.60;;;;110869;1250;41440;-67
2022/02/27 01:06:58;;;;;;;10.90;4.30;;;;;3.10;98488.00;;;;110817;1250;41255;-67
2022/02/27 01:09:28;;;;;;;10.50;4.00;;;;;3.10;98488.40;;;;110538;1252;41517;-66
2022/02/27 01:11:57;;;;;;;9.90;3.70;;;;;3.10;98486.80;;;;110706;1251;41134;-65
2022/02/27 01:14:27;;;;;;;9.20;3.90;;;;;3.02;98480.40;;;;110708;1251;42405;-67
2022/02/27 01:17:01;;;;;;;11.40;4.00;;;;;3.00;98478.60;;;;110754;1250;41376;-66
2022/02/27 01:19:31;;;;;;;12.90;3.70;;;;;3.00;98480.40;;;;110479;1251;42195;-66
2022/02/27 01:22:01;;;;;;;7.60;3.40;;;;;3.00;98480.60;;;;110879;1250;41614;-67
2022/02/27 01:24:35;;;;;;;10.90;4.10;;;;;2.92;98482.00;;;;110743;1251;41128;-68
2022/02/27 01:27:06;;;;;;;10.80;3.70;;;;;2.90;98478.60;;;;110613;1252;42254;-68
2022/02/27 01:29:36;;;;;;;10.10;4.10;;;;;2.90;98480.40;;;;110892;1250;41160;-68
2022/02/27 01:32:06;;;;;;;9.50;3.90;;;;;2.90;98480.80;;;;110638;1253;41958;-67
2022/02/27 01:34:39;;;;;;;14.00;3.90;;;;;2.84;98485.00;;;;110657;1252;41265;-67
2022/02/27 01:37:09;;;;;;;9.60;3.70;;;;;2.80;98483.20;;;;110647;1252;42195;-67
2022/02/27 01:39:38;;;;;;;8.40;3.90;;;;;2.80;98488.40;;;;110659;1250;41164;-66
2022/02/27 01:42:13;;;;;;;12.00;3.30;;;;;2.80;98490.00;;;;110761;1251;41771;-69
2022/02/27 01:44:44;;;;;;;13.00;3.70;;;;;2.80;98490.80;;;;110782;1251;41139;-67
2022/02/27 01:47:14;;;;;;;10.20;3.40;;;;;2.76;98491.40;;;;110817;1250;41258;-67
2022/02/27 01:49:45;;;;;;;9.60;3.70;;;;;2.70;98488.60;;;;110618;1251;42376;-67
2022/02/27 01:52:15;;;;;;;7.90;3.40;;;;;2.70;98488.00;;;;110673;1250;41491;-67
2022/02/27 01:54:45;;;;;;;10.50;4.10;;;;;2.68;98487.40;;;;110579;1251;41267;-67
2022/02/27 01:57:16;;;;;;;9.00;3.70;;;;;2.60;98491.00;;;;110689;1252;42366;-65
2022/02/27 01:59:46;;;;;;;8.20;3.50;;;;;2.58;98486.20;;;;110796;1250;42053;-68
2022/02/27 02:02:17;;;;;;;9.70;3.80;;;;;2.50;98481.40;;;;110695;1252;41885;-67
2022/02/27 02:04:47;;;;;;;11.90;4.20;;;;;2.48;98483.60;;;;110519;1250;41146;-67
2022/02/27 02:07:17;;;;;;;10.30;4.00;;;;;2.40;98487.80;;;;110739;1250;41173;-68
2022/02/27 02:09:48;;;;;;;11.30;4.20;;;;;2.40;98487.00;;;;110604;1252;41154;-67
2022/02/27 02:12:19;;;;;;;8.00;3.80;;;;;2.30;98493.20;;;;110501;1253;41671;-67
2022/02/27 02:14:50;;;;;;;10.50;4.20;;;;;2.20;98495.20;;;;110645;1253;41229;-66
2022/02/27 02:17:19;;;;;;;8.60;4.00;;;;;2.20;98497.40;;;;110454;1253;41274;-67
2022/02/27 02:19:54;;;;;;;11.30;3.60;;;;;2.10;98496.20;;;;110765;1252;41347;-67
2022/02/27 02:22:24;;;;;;;9.50;3.90;;;;;2.08;98503.60;;;;110634;1253;41264;-68
2022/02/27 02:24:55;;;;;;;9.80;4.00;;;;;2.00;98506.60;;;;110719;1252;41143;-66
2022/02/27 02:27:24;;;;;;;9.40;3.30;;;;;1.90;98507.80;;;;110649;1252;41146;-67
2022/02/27 02:29:55;;;;;;;;;;;;;1.82;98507.80;;;;110475;1254;41265;-67
2022/02/27 02:32:26;;;;;;;9.00;3.50;;;;;1.80;98506.80;;;;110570;1252;41292;-67
2022/02/27 02:34:56;;;;;;;8.90;3.50;;;;;1.70;98504.40;;;;110500;1253;41707;-66
2022/02/27 02:37:26;;;;;;;9.30;3.30;;;;;1.70;98509.60;;;;110651;1252;41196;-65
2022/02/27 02:39:56;;;;;;;8.90;3.40;;;;;1.60;98508.20;;;;110625;1252;42375;-65
2022/02/27 02:42:26;;;;;;;8.50;3.50;;;;;1.50;98505.80;;;;110545;1252;42299;-66
2022/02/27 02:44:56;;;;;;;8.80;3.60;;;;;1.50;98509.20;;;;110233;1253;460562;-67
2022/02/27 02:47:26;;;;;;;7.30;3.00;;;;;1.48;98513.20;;;;110610;1252;42494;-67
2022/02/27 02:49:57;;;;;;;9.50;3.40;;;;;1.40;98511.00;;;;110512;1253;41158;-67
2022/02/27 02:52:28;;;;;;;12.20;3.70;;;;;1.40;98512.20;;;;110461;1252;41140;-67
2022/02/27 02:54:58;;;;;;;;;;;;;1.30;98516.00;;;;110494;1252;41427;-66
2022/02/27 02:57:28;;;;;;;8.40;3.40;;;;;1.30;98520.00;;;;110751;1252;41142;-66
2022/02/27 03:00:00;;;;;;;8.60;3.60;;;;;1.20;98524.00;;;;110451;1252;43028;-66
2022/02/27 03:02:31;;;;;;;8.30;3.10;;;;;1.18;98529.80;;;;110589;1252;41622;-65
2022/02/27 03:05:05;;;;;;;8.10;3.30;;;;;1.10;98525.80;;;;110763;1250;41943;-66
2022/02/27 03:07:39;;;;;;;8.20;3.20;;;;;1.00;98528.80;;;;110781;1251;41737;-68
2022/02/27 03:10:10;;;;;;;9.30;3.20;;;;;1.00;98532.40;;;;110854;1250;41900;-67
2022/02/27 03:12:40;;;;;;;8.30;2.90;;;;;1.00;98534.80;;;;110646;1252;41723;-67
2022/02/27 03:15:09;;;;;;;8.10;3.20;;;;;0.90;98536.40;;;;110500;1252;41541;-67
2022/02/27 03:17:40;;;;;;;7.20;2.80;;;;;0.90;98536.40;;;;110625;1251;42030;-68
2022/02/27 03:20:10;;;;;;;7.90;3.20;;;;;0.90;98544.20;;;;110856;1250;41187;-67
2022/02/27 03:22:40;;;;;;;11.10;3.70;;;;;0.80;98540.60;;;;110779;1250;41911;-68
2022/02/27 03:25:10;;;;;;;7.10;3.10;;;;;0.78;98544.80;;;;110929;1250;41138;-68
2022/02/27 03:27:40;;;;;;;10.90;3.80;;;;;0.70;98546.60;;;;110665;1253;42068;-68
2022/02/27 03:30:10;;;;;;;8.90;3.50;;;;;0.70;98547.00;;;;110775;1252;41611;-65
2022/02/27 03:32:46;;;;;;;7.50;3.10;;;;;0.60;98552.60;;;;110790;1250;41205;-65
2022/02/27 03:35:17;;;;;;;8.60;3.10;;;;;0.60;98552.00;;;;110620;1253;41621;-68
2022/02/27 03:37:50;;;;;;;;;;;;;0.50;98560.00;;;;110723;1252;41176;-67
2022/02/27 03:40:20;;;;;;;11.20;3.30;;;;;0.48;98552.40;;;;110812;1250;41345;-67
2022/02/27 03:42:50;;;;;;;10.00;3.30;;;;;0.40;98560.80;;;;110626;1251;41171;-67
2022/02/27 03:45:20;;;;;;;7.40;3.30;;;;;0.40;98556.00;;;;110598;1251;42109;-67
2022/02/27 03:47:50;;;;;;;8.40;3.40;;;;;0.30;98552.60;;;;110791;1251;41949;-67
2022/02/27 03:50:19;;;;;;;6.70;3.00;;;;;0.30;98553.00;;;;110621;1251;41156;-68
2022/02/27 03:52:49;;;;;;;11.00;3.30;;;;;0.26;98547.80;;;;110672;1251;41251;-68
2022/02/27 03:55:19;;;;;;;8.80;3.30;;;;;0.20;98545.00;;;;110643;1250;41181;-67
2022/02/27 03:57:48;;;;;;;11.30;4.60;;;;;0.20;98541.80;;;;110820;1251;42372;-68
2022/02/27 04:00:19;;;;;;;10.70;4.50;;;;;0.20;98540.60;;;;110740;1252;41148;-68
2022/02/27 04:02:48;;;;;;;11.00;4.00;;;;;0.20;98539.60;;;;110707;1252;41262;-67
2022/02/27 04:05:21;;;;;;;9.60;3.70;;;;;0.20;98540.40;;;;110523;1252;41273;-67
2022/02/27 04:07:50;;;;;;;9.30;3.50;;;;;0.20;98541.80;;;;110677;1250;41931;-67
2022/02/27 04:10:21;;;;;;;12.20;3.50;;;;;0.20;98546.40;;;;110693;1250;41280;-67
2022/02/27 04:12:52;;;;;;;9.10;3.70;;;;;0.20;98547.20;;;;110726;1251;41142;-67
2022/02/27 04:15:23;;;;;;;8.00;3.40;;;;;0.12;98547.40;;;;110745;1251;41614;-67
2022/02/27 04:17:53;;;;;;;11.40;3.80;;;;;0.10;98549.40;;;;110893;1250;41691;-67
2022/02/27 04:20:25;;;;;;;8.10;3.40;;;;;0.10;98549.60;;;;110839;1250;41575;-67
2022/02/27 04:22:55;;;;;;;10.70;4.00;;;;;0.00;98548.40;;;;110589;1251;42550;-66
2022/02/27 04:25:25;;;;;;;9.00;3.70;;;;;0.00;98547.20;;;;110956;1251;41182;-68
2022/02/27 04:27:58;;;;;;;8.50;3.40;;;;;-0.10;98548.20;;;;110940;1251;41637;-66
2022/02/27 04:30:27;;;;;;;7.50;3.40;;;;;-0.10;98551.60;;;;110650;1252;41264;-67
2022/02/27 04:32:57;;;;;;;8.10;3.40;;;;;-0.20;98559.80;;;;110717;1251;41138;-68
2022/02/27 04:35:29;;;;;;;8.60;3.70;;;;;-0.20;98558.00;;;;110943;1250;41278;-68
2022/02/27 04:37:59;;;;;;;7.40;3.10;;;;;-0.26;98555.40;;;;110791;1250;41155;-69
2022/02/27 04:40:33;;;;;;;8.60;3.10;;;;;-0.30;98554.80;;;;110676;1253;41642;-66
2022/02/27 04:43:03;;;;;;;8.70;3.40;;;;;-0.30;98558.00;;;;110621;1251;42390;-67
2022/02/27 04:45:33;;;;;;;7.60;3.50;;;;;-0.30;98560.00;;;;110835;1251;42281;-66
2022/02/27 04:48:03;;;;;;;7.50;3.20;;;;;-0.36;98555.00;;;;110899;1250;41143;-66
2022/02/27 04:50:33;;;;;;;7.70;3.30;;;;;-0.40;98552.60;;;;110646;1253;42049;-67
2022/02/27 04:53:03;;;;;;;9.70;3.30;;;;;-0.40;98558.80;;;;110765;1251;41989;-66
2022/02/27 04:55:34;;;;;;;8.90;3.20;;;;;-0.40;98563.00;;;;110723;1250;41144;-66
2022/02/27 04:58:04;;;;;;;9.70;3.30;;;;;-0.40;98554.20;;;;110809;1250;41211;-65
2022/02/27 05:00:33;;;;;;;7.60;3.30;;;;;-0.40;98564.00;;;;110655;1251;41213;-66
2022/02/27 05:03:02;;;;;;;9.50;3.50;;;;;-0.40;98558.80;;;;110704;1250;41170;-67
2022/02/27 05:05:32;;;;;;;8.20;3.30;;;;;-0.40;98560.80;;;;110493;1251;41346;-66
2022/02/27 05:08:02;;;;;;;10.20;3.00;;;;;-0.44;98557.40;;;;110868;1250;41245;-68
2022/02/27 05:10:33;;;;;;;9.00;3.10;;;;;-0.42;98555.40;;;;110635;1252;41258;-68
2022/02/27 05:13:02;;;;;;;;;;;;;-0.44;98555.40;;;;110807;1252;41253;-64
2022/02/27 05:15:33;;;;;;;9.70;3.50;;;;;-0.50;98565.80;;;;110605;1252;41511;-66
2022/02/27 05:18:02;;;;;;;8.00;3.40;;;;;-0.50;98564.40;;;;110625;1250;42436;-66
2022/02/27 05:20:32;;;;;;;11.40;3.70;;;;;-0.50;98570.00;;;;110560;1251;41424;-66
2022/02/27 05:23:02;;;;;;;8.30;3.90;;;;;-0.50;98574.60;;;;110818;1251;41160;-66
2022/02/27 05:25:31;;;;;;;9.10;3.80;;;;;-0.50;98570.20;;;;110770;1250;41260;-66
2022/02/27 05:28:01;;;;;;;9.40;3.50;;;;;-0.50;98562.00;;;;110738;1251;41990;-66
2022/02/27 05:30:31;;;;;;;9.40;3.90;;;;;-0.46;98562.00;;;;110783;1250;41305;-67
2022/02/27 05:33:00;;;;;;;9.10;3.60;;;;;-0.40;98568.80;;;;110689;1251;41325;-65
2022/02/27 05:35:30;;;;;;;9.40;3.60;;;;;-0.30;98576.00;;;;110701;1250;40868;-66
2022/02/27 05:38:00;;;;;;;10.00;4.10;;;;;-0.20;98578.40;;;;110788;1250;41263;-67
2022/02/27 05:40:29;;;;;;;11.10;4.50;;;;;-0.10;98572.00;;;;110951;1250;41488;-67
2022/02/27 05:42:59;;;;;;;17.10;6.60;;;;;0.02;98574.60;;;;110976;1250;41155;-67
2022/02/27 05:45:28;;;;;;;12.10;4.60;;;;;0.20;98575.20;;;;110759;1251;41131;-66
2022/02/27 05:47:57;;;;;;;9.00;3.70;;;;;0.30;98578.40;;;;110834;1250;41186;-66
2022/02/27 05:50:27;;;;;;;8.80;3.80;;;;;0.40;98582.20;;;;110773;1250;41622;-66
2022/02/27 05:52:56;;;;;;;9.70;3.70;;;;;0.50;98589.00;;;;110556;1250;41647;-66
2022/02/27 05:55:26;;;;;;;9.30;3.50;;;;;0.56;98593.20;;;;110935;1250;41539;-67
2022/02/27 05:58:01;;;;;;;9.50;3.50;;;;;0.60;98590.00;;;;110583;1251;41286;-65
2022/02/27 06:00:30;;;;;;;7.40;3.00;;;;;0.70;98590.60;;;;110649;1251;41371;-66
2022/02/27 06:03:00;;;;;;;7.70;3.20;;;;;0.80;98595.60;;;;110640;1251;41310;-65
2022/02/27 06:05:30;;;;;;;9.10;3.50;;;;;0.90;98598.40;;;;110675;1251;41732;-66
2022/02/27 06:08:00;;;;;;;7.80;3.40;;;;;1.00;98594.40;;;;110471;1250;41249;-65
2022/02/27 06:10:30;;;;;;;8.40;3.40;;;;;1.08;98604.20;;;;110793;1250;41152;-66
2022/02/27 06:12:59;;;;;;;11.30;4.20;;;;;1.18;98603.80;;;;110733;1251;41395;-65
2022/02/27 06:15:28;;;;;;;10.50;4.50;;;;;1.24;98600.00;;;;110991;1250;41420;-67
2022/02/27 06:17:59;;;;;;;10.40;4.50;;;;;1.34;98606.80;;;;110775;1251;41168;-66
2022/02/27 06:20:28;;;;;;;12.90;4.70;;;;;1.46;98611.00;;;;110721;1249;41159;-66
2022/02/27 06:22:57;;;;;;;13.50;5.20;;;;;1.50;98609.40;;;;110740;1250;41166;-66
2022/02/27 06:25:28;;;;;;;11.50;5.30;;;;;1.60;98611.60;;;;110779;1251;41158;-66
2022/02/27 06:27:57;;;;;;;14.30;5.40;;;;;1.70;98618.60;;;;110713;1251;41332;-66
2022/02/27 06:30:27;;;;;;;12.90;5.60;;;;;1.80;98625.80;;;;110939;1250;41887;-66
2022/02/27 06:32:57;;;;;;;11.60;5.00;;;;;1.90;98626.20;;;;110777;1251;42858;-66
2022/02/27 06:35:26;;;;;;;14.10;7.00;;;;;2.00;98622.80;;;;110552;1251;41387;-66
2022/02/27 06:37:55;;;;;;;15.90;6.70;;;;;2.10;98621.00;;;;110786;1251;41249;-67
2022/02/27 06:40:25;;;;;;;11.10;5.30;;;;;2.20;98617.80;;;;110660;1251;41632;-67
2022/02/27 06:42:55;;;;;;;11.10;4.70;;;;;2.30;98626.00;;;;110921;1251;41146;-66
2022/02/27 06:45:24;;;;;;;10.80;4.10;;;;;2.40;98627.40;;;;110667;1251;42406;-69
2022/02/27 06:47:53;;;;;;;12.80;4.30;;;;;2.56;98635.40;;;;110719;1250;41262;-67
2022/02/27 06:50:23;;;;;;;8.70;3.80;;;;;2.70;98636.40;;;;110538;1253;42917;-64
2022/02/27 06:52:53;;;;;;;8.70;3.30;;;;;2.80;98637.00;;;;110999;1250;42450;-66
2022/02/27 06:55:22;;;;;;;13.90;4.80;;;;;2.90;98639.40;;;;110776;1251;40869;-66
2022/02/27 06:57:52;;;;;;;15.10;6.50;;;;;3.10;98644.00;;;;110701;1250;41623;-67
2022/02/27 07:00:21;;;;;;;17.50;7.90;;;;;3.18;98640.80;;;;110950;1250;41271;-64
2022/02/27 07:02:50;;;;;;;13.40;6.80;;;;;3.30;98646.80;;;;110723;1251;41396;-67
2022/02/27 07:05:20;;;;;;;15.10;6.90;;;;;3.32;98648.00;;;;110971;1250;41248;-67
2022/02/27 07:07:49;;;;;;;18.00;8.00;;;;;3.40;98652.60;;;;110602;1250;41122;-67
2022/02/27 07:10:18;;;;;;;15.70;7.30;;;;;3.50;98650.80;;;;110757;1251;41154;-68
2022/02/27 07:12:48;;;;;;;16.10;7.40;;;;;3.66;98656.40;;;;110768;1250;42393;-67
2022/02/27 07:15:18;;;;;;;21.80;10.10;;;;;3.70;98651.40;;;;110767;1250;41614;-69
2022/02/27 07:17:47;;;;;;;19.30;9.50;;;;;3.80;98654.80;;;;110744;1251;41166;-66
2022/02/27 07:20:18;;;;;;;25.70;12.70;;;;;3.90;98656.60;;;;110831;1249;41169;-66
2022/02/27 07:22:47;;;;;;;31.20;13.20;;;;;3.90;98653.00;;;;110889;1250;42368;-65
2022/02/27 07:25:18;;;;;;;;;;;;;3.96;98655.80;;;;110805;1251;41156;-67
2022/02/27 07:27:47;;;;;;;28.90;12.60;;;;;3.90;98658.00;;;;110943;1250;41137;-67
2022/02/27 07:30:16;;;;;;;25.30;11.40;;;;;3.98;98657.20;;;;110900;1250;41363;-64
2022/02/27 07:32:46;;;;;;;20.50;9.60;;;;;4.10;98652.20;;;;110843;1249;41598;-67
2022/02/27 07:35:15;;;;;;;19.00;8.40;;;;;4.34;98652.60;;;;110851;1250;41596;-68
2022/02/27 07:37:44;;;;;;;19.50;8.00;;;;;4.70;98652.20;;;;110814;1251;42014;-67
2022/02/27 07:40:13;;;;;;;15.30;7.60;;;;;5.02;98646.60;;;;110781;1250;41140;-68
2022/02/27 07:42:43;;;;;;;13.90;6.20;;;;;5.40;98638.60;;;;110902;1250;41621;-68
2022/02/27 07:45:12;;;;;;;17.90;5.80;;;;;5.80;98638.00;;;;110749;1250;41197;-66
2022/02/27 07:47:42;;;;;;;14.50;6.30;;;;;6.32;98634.60;;;;110912;1249;41259;-66
2022/02/27 07:50:11;;;;;;;13.00;5.70;;;;;6.98;98629.80;;;;110719;1250;41160;-67
2022/02/27 07:52:40;;;;;;;10.20;3.90;;;;;7.58;98622.60;;;;110975;1250;42010;-68
2022/02/27 07:55:09;;;;;;;7.90;3.10;;;;;8.06;98617.80;;;;110959;1250;41157;-67
2022/02/27 07:57:38;;;;;;;8.00;3.00;;;;;8.60;98616.60;;;;110758;1250;41275;-68
2022/02/27 08:00:08;;;;;;;9.50;2.70;;;;;9.08;98611.60;;;;110843;1250;41299;-67
2022/02/27 08:02:40;;;;;;;8.40;2.90;;;;;9.40;98605.60;;;;110601;1254;41612;-68
2022/02/27 08:05:09;;;;;;;7.00;2.80;;;;;9.64;98598.60;;;;110667;1251;41134;-67
2022/02/27 08:07:38;;;;;;;7.90;2.70;;;;;9.84;98599.00;;;;110625;1251;41354;-67
2022/02/27 08:10:10;;;;;;;8.80;3.10;;;;;10.16;98597.00;;;;110754;1251;41150;-67
2022/02/27 08:12:43;;;;;;;7.60;3.00;;;;;10.50;98588.20;;;;110811;1251;41150;-67
2022/02/27 08:15:14;;;;;;;7.40;2.80;;;;;10.80;98587.40;;;;110572;1251;41258;-65
2022/02/27 08:17:43;;;;;;;7.00;2.60;;;;;11.00;98583.60;;;;110828;1251;41833;-67
2022/02/27 08:20:13;;;;;;;9.60;3.00;;;;;11.10;98584.00;;;;110591;1251;41156;-70
2022/02/27 08:22:42;;;;;;;9.10;2.80;;;;;11.28;98580.40;;;;110863;1252;42382;-66
2022/02/27 08:25:12;;;;;;;7.40;2.70;;;;;11.40;98579.00;;;;110641;1253;41160;-67
2022/02/27 08:27:41;;;;;;;6.10;2.10;;;;;11.40;98569.40;;;;110515;1252;41144;-68
2022/02/27 08:30:11;;;;;;;6.70;2.60;;;;;11.48;98563.80;;;;110527;1253;41192;-67
2022/02/27 08:32:40;;;;;;;7.70;2.50;;;;;11.66;98557.80;;;;110624;1253;41271;-68
2022/02/27 08:35:10;;;;;;;6.80;2.20;;;;;11.72;98556.60;;;;110550;1254;41259;-67
2022/02/27 08:37:39;;;;;;;5.80;2.20;;;;;11.86;98555.00;;;;110773;1251;41942;-65
2022/02/27 08:40:09;;;;;;;5.70;2.10;;;;;12.18;98545.40;;;;110735;1251;42416;-66
2022/02/27 08:42:40;;;;;;;7.10;2.30;;;;;12.22;98545.80;;;;110590;1251;41195;-67
2022/02/27 08:45:09;;;;;;;10.00;2.50;;;;;12.40;98545.00;;;;110622;1254;42158;-66
2022/02/27 08:47:39;;;;;;;6.10;2.10;;;;;12.84;98542.20;;;;110675;1250;41748;-69
2022/02/27 08:50:10;;;;;;;5.50;1.90;;;;;13.80;98528.00;;;;110858;1250;41186;-69
2022/02/27 08:52:39;;;;;;;5.90;2.00;;;;;15.68;98505.80;;;;110743;1251;41604;-70
2022/02/27 08:55:10;;;;;;;10.00;2.30;;;;;18.44;98496.40;;;;110891;1251;42023;-67
2022/02/27 08:57:39;;;;;;;5.40;2.10;;;;;21.06;98489.40;;;;110868;1250;42355;-68
2022/02/27 09:00:11;;;;;;;6.90;2.50;;;;;23.14;98476.80;;;;110689;1251;41155;-65
2022/02/27 09:02:40;;;;;;;4.50;2.00;;;;;24.14;98472.00;;;;110599;1252;41627;-67
2022/02/27 09:05:09;;;;;;;6.50;2.10;;;;;25.74;98469.40;;;;110578;1251;41376;-67
2022/02/27 09:07:39;;;;;;;4.90;1.90;;;;;26.70;98469.80;;;;110607;1254;41372;-68
2022/02/27 09:10:12;;;;;;;4.40;1.80;;;;;27.08;98479.20;;;;110581;1252;41157;-67
2022/02/27 09:12:43;;;;;;;6.30;1.80;;;;;26.76;98463.00;;;;110779;1251;41617;-69
2022/02/27 09:15:14;;;;;;;4.70;1.80;;;;;26.78;98460.60;;;;110667;1251;41539;-68
2022/02/27 09:17:43;;;;;;;;;;;;;27.86;98458.60;;;;110902;1250;41250;-68
2022/02/27 09:20:12;;;;;;;4.70;1.70;;;;;29.44;98460.40;;;;110731;1250;41153;-70
2022/02/27 09:22:41;;;;;;;6.90;1.90;;;;;31.18;98456.00;;;;110706;1250;42139;-69
2022/02/27 09:25:10;;;;;;;5.20;1.80;;;;;32.56;98445.60;;;;110747;1250;41177;-71
2022/02/27 09:28:00;;;;;;;5.10;1.80;;;;;32.34;98446.60;;;;110602;1253;41261;-68
2022/02/27 09:30:29;;;;;;;4.90;1.70;;;;;33.36;98441.20;;;;111025;1250;41186;-69
2022/02/27 09:32:58;;;;;;;5.30;2.00;;;;;33.92;98440.40;;;;110681;1248;41160;-71
2022/02/27 09:35:29;;;;;;;5.70;2.10;;;;;34.32;98449.20;;;;111015;1248;41319;-69
2022/02/27 09:38:00;;;;;;;5.10;1.90;;;;;33.88;98436.20;;;;110912;1250;41179;-68
2022/02/27 09:40:30;;;;;;;4.10;1.90;;;;;34.00;98432.80;;;;110861;1251;41141;-68
2022/02/27 09:42:59;;;;;;;4.10;1.70;;;;;33.46;98428.40;;;;110734;1248;41608;-68
2022/02/27 09:45:28;;;;;;;14.80;2.00;;;;;34.14;98434.20;;;;110697;1250;41144;-67
2022/02/27 09:47:58;;;;;;;4.60;1.70;;;;;33.72;98431.40;;;;110598;1251;41134;-67
2022/02/27 09:50:27;;;;;;;4.70;1.60;;;;;34.22;98433.80;;;;110926;1248;41933;-68
2022/02/27 09:52:57;;;;;;;4.00;1.60;;;;;34.26;98429.60;;;;110718;1250;41172;-69
2022/02/27 09:55:27;;;;;;;4.20;1.60;;;;;34.38;98436.60;;;;110807;1250;41259;-67
2022/02/27 09:57:58;;;;;;;7.40;1.60;;;;;33.16;98435.60;;;;110800;1250;41736;-68
2022/02/27 10:00:28;;;;;;;5.80;1.90;;;;;33.08;98437.20;;;;110894;1250;41665;-68
2022/02/27 10:03:16;;;;;;;5.70;1.60;;;;;33.02;98441.80;;;;110623;1250;41252;-67
2022/02/27 10:05:47;;;;;;;7.20;1.60;;;;;33.70;98436.20;;;;110763;1250;41455;-67
2022/02/27 10:08:16;;;;;;;4.50;1.70;;;;;33.54;98437.80;;;;110722;1250;41186;-67
2022/02/27 10:10:56;;;;;;;5.30;1.70;;;;;34.44;98433.80;;;;110607;1254;41258;-67
2022/02/27 10:13:33;;;;;;;5.60;1.80;;;;;35.18;98428.80;;;;110525;1253;41727;-67
2022/02/27 10:16:07;;;;;;;2.80;1.40;;;;;34.94;98423.40;;;;110606;1251;41295;-67
2022/02/27 10:18:38;;;;;;;3.50;1.40;;;;;35.00;98452.60;;;;110750;1251;40818;-68
2022/02/27 10:21:28;;;;;;;7.50;1.80;;;;;32.18;98455.40;;;;110600;1252;41951;-68
2022/02/27 10:24:17;;;;;;;3.90;1.40;;;;;27.96;98441.40;;;;110601;1251;41718;-65
2022/02/27 10:26:49;;;;;;;4.70;1.70;;;;;28.98;98431.20;;;;110645;1251;41128;-67
2022/02/27 10:29:25;;;;;;;5.10;1.70;;;;;29.44;98427.40;;;;110740;1251;41342;-68
2022/02/27 10:31:56;;;;;;;4.00;1.60;;;;;30.82;98415.80;;;;110850;1250;41133;-68
2022/02/27 10:34:32;;;;;;;2.60;1.30;;;;;31.90;98442.40;;;;110644;1250;41208;-68
2022/02/27 10:37:12;;;;;;;3.80;1.50;;;;;29.34;98451.60;;;;110904;1250;41141;-67
2022/02/27 10:39:48;;;;;;;5.50;1.80;;;;;25.96;98448.20;;;;110746;1250;41613;-67
2022/02/27 10:42:27;;;;;;;4.70;1.70;;;;;23.30;98456.60;;;;110921;1250;41165;-68
2022/02/27 10:44:58;;;;;;;4.90;1.70;;;;;21.20;98459.60;;;;110804;1250;41750;-68
2022/02/27 10:47:32;;;;;;;5.70;1.90;;;;;19.42;98462.40;;;;110794;1251;42042;-68
2022/02/27 10:50:14;;;;;;;4.80;1.60;;;;;18.02;98465.00;;;;110948;1250;41162;-68
2022/02/27 10:52:46;;;;;;;4.60;1.90;;;;;17.04;98464.80;;;;110948;1250;42077;-67
2022/02/27 10:55:16;;;;;;;4.30;1.80;;;;;16.02;98466.60;;;;110977;1248;41170;-68
2022/02/27 10:57:49;;;;;;;6.20;1.70;;;;;15.66;98464.80;;;;110773;1250;41147;-68
2022/02/27 11:00:19;;;;;;;4.90;1.80;;;;;14.70;98465.80;;;;110827;1249;41610;-68
2022/02/27 11:02:59;;;;;;;6.20;1.80;;;;;14.42;98468.00;;;;110839;1250;41669;-67
2022/02/27 11:05:33;;;;;;;4.70;1.70;;;;;14.14;98470.40;;;;110914;1250;41160;-68
2022/02/27 11:08:05;;;;;;;8.00;2.00;;;;;13.92;98461.20;;;;110946;1249;42416;-67
2022/02/27 11:10:39;;;;;;;4.10;1.60;;;;;13.80;98457.20;;;;110738;1250;41150;-68
2022/02/27 11:13:11;;;;;;;5.50;1.90;;;;;13.58;98458.60;;;;110819;1251;41264;-68
2022/02/27 11:15:40;;;;;;;5.50;1.70;;;;;13.32;98448.80;;;;110595;1251;41303;-67
2022/02/27 11:18:10;;;;;;;4.40;1.60;;;;;14.38;98434.80;;;;110733;1251;41501;-67
2022/02/27 11:20:41;;;;;;;4.20;1.70;;;;;16.92;98442.20;;;;110983;1250;41328;-69
2022/02/27 11:23:10;;;;;;;3.50;1.60;;;;;17.70;98431.60;;;;110932;1250;41186;-66
2022/02/27 11:25:39;;;;;;;5.90;2.00;;;;;17.64;98408.00;;;;110807;1249;41286;-66
2022/02/27 11:28:10;;;;;;;4.00;1.70;;;;;20.42;98385.00;;;;110664;1250;41726;-67
2022/02/27 11:30:39;;;;;;;;;;;;;23.42;98378.40;;;;110659;1251;41158;-67
2022/02/27 11:33:15;;;;;;;5.60;1.80;;;;;25.68;98396.60;;;;110654;1250;42294;-67
2022/02/27 11:35:58;;;;;;;3.90;1.60;;;;;25.30;98369.00;;;;110882;1250;41140;-67
2022/02/27 11:38:31;;;;;;;5.00;1.60;;;;;27.20;98364.20;;;;110641;1250;42257;-68
2022/02/27 11:41:06;;;;;;;4.80;1.60;;;;;29.72;98348.20;;;;110925;1250;42369;-66
2022/02/27 11:43:50;;;;;;;4.20;1.70;;;;;31.66;98345.60;;;;110560;1253;41484;-67
2022/02/27 11:46:37;;;;;;;5.20;1.50;;;;;33.86;98340.40;;;;110807;1251;42668;-66
2022/02/27 11:49:18;;;;;;;3.90;1.50;;;;;36.04;98335.60;;;;110795;1251;42510;-68
2022/02/27 11:51:52;;;;;;;6.30;2.00;;;;;37.26;98329.40;;;;110739;1250;41136;-67
2022/02/27 11:54:23;;;;;;;5.00;1.80;;;;;37.10;98331.40;;;;110804;1250;41180;-68
2022/02/27 11:56:58;;;;;;;4.90;1.80;;;;;36.60;98353.80;;;;110825;1250;41955;-68
2022/02/27 11:59:51;;;;;;;4.50;1.80;;;;;32.88;98340.40;;;;110969;1250;41146;-67
2022/02/27 12:02:30;;;;;;;4.60;1.70;;;;;29.24;98371.60;;;;110723;1250;41726;-67
2022/02/27 12:05:01;;;;;;;5.00;1.80;;;;;27.56;98376.00;;;;110631;1250;41184;-67
2022/02/27 12:08:02;;;;;;;5.00;1.70;;;;;24.76;98378.40;;;;110689;1250;41532;-67
2022/02/27 12:10:39;;;;;;;6.40;1.90;;;;;23.34;98382.20;;;;110945;1249;41165;-66
2022/02/27 12:13:30;;;;;;;4.50;1.50;;;;;22.06;98389.20;;;;110881;1250;41152;-67
2022/02/27 12:16:13;;;;;;;4.20;1.40;;;;;20.86;98385.80;;;;110802;1250;41591;-67
2022/02/27 12:18:49;;;;;;;4.90;1.90;;;;;20.02;98387.00;;;;110744;1250;41455;-67
2022/02/27 12:21:39;;;;;;;4.00;1.60;;;;;19.22;98384.00;;;;110956;1248;41180;-67
2022/02/27 12:24:24;;;;;;;5.30;1.70;;;;;20.02;98340.20;;;;110852;1250;42277;-67
2022/02/27 12:27:03;;;;;;;4.40;1.70;;;;;23.80;98350.20;;;;110841;1250;41657;-67
2022/02/27 12:29:36;;;;;;;5.50;1.70;;;;;26.22;98326.00;;;;110713;1248;41359;-68
2022/02/27 12:32:20;;;;;;;3.90;1.70;;;;;28.64;98337.20;;;;110782;1249;41707;-70